• Join FlightAware (Why Join?)
  • Login
  • US Flag 
06:56PM EST


 

Airport Tracker/Info


-or-


 

Live Flight TrackerFlight Track Log ✈ N816BG ✈ 21-Jun-2014 ✈ KACB - KGRR

Flight Track Log - Related Links

Times and Time Zones

All times are in EDT time to prevent confusion due to time zone crossing. See the N816BG flight status page for this flight to view local times or setup timezone preferences in your user account.

Time Position Orientation Groundspeed Altitude Reporting Facility
EDT Latitude Longitude Course Direction KTS MPH feet Rate Location/Type
02:57PM 44.9033 -85.2206 185° South 258 297 5,200  Level Minneapolis Center
02:58PM 44.8272 -85.2275 184° South 272 313 9,000 3,480 Climbing Minneapolis Center
02:59PM 44.7456 -85.2372 185° South 284 327 12,400 2,340 Climbing Minneapolis Center
03:00PM 44.6386 -85.2539 186° South 311 358 13,900 720 Climbing Minneapolis Center
03:01PM 44.5381 -85.2697 186° South 351 404 13,900  Level Minneapolis Center
03:02PM 44.5864 -85.2497 185° South  Level FlightAware Approximate
03:02PM 44.4375 -85.2853 186° South 357 411 13,900  Level Minneapolis Center
03:03PM 44.3372 -85.3014 187° South 359 413 13,900  Level Minneapolis Center
03:04PM 44.2361 -85.3164 186° South 362 417 13,900  Level Minneapolis Center
03:05PM 44.1350 -85.3322 186° South 362 417 13,900 60 Level Minneapolis Center
03:06PM 44.0325 -85.3483 186° South 362 417 14,100  Climbing Minneapolis Center
03:07PM 43.9333 -85.3639 186° South 361 415 14,000 -420 Descending Minneapolis Center
03:08PM 43.8158 -85.3828 187° South 357 411 13,300 -900 Descending Minneapolis Center
03:09PM 43.7242 -85.3956 186° South 340 391 12,200 -1,080 Descending Minneapolis Center
03:10PM 43.6417 -85.4197 192° South 310 357 11,100 -1,140 Descending Minneapolis Center
03:11PM 43.5764 -85.4308 187° South 301 346 10,100 -1,140 Descending Chicago Center
03:12PM 43.4958 -85.4442 187° South 296 341 9,000 -1,140 Descending Chicago Center
03:13PM 43.4178 -85.4575 187° South 286 329 7,800 -1,200 Descending Chicago Center
03:14PM 43.3394 -85.4711 187° South 285 328 6,600 -1,140 Descending Chicago Center
03:15PM 43.2636 -85.4858 188° South 280 322 5,500 -1,260 Descending Chicago Center
03:16PM 43.1725 -85.5000 186° South 277 319 4,100 -1,260 Descending Chicago Center
03:17PM 43.0989 -85.5133 188° South 271 312 2,900 -780 Descending Chicago Center
03:18PM 43.0292 -85.5253 187° South 263 303 2,500 -240 Descending Chicago Center
03:19PM 42.9764 -85.5350 188° South 217 250 2,500 -360 Level Chicago Center
03:20PM 42.9353 -85.5294 174° South 174 200 1,800 -720 Descending Chicago Center
03:22PM 42.8978 -85.5208 170° South 152 175 1,100 -720 Descending Chicago Center
03:24PM 42.8808 -85.5228 194° South  Level Estimated